sensor_id;sensor_type;location;lat;lon;timestamp;pressure;altitude;pressure_sealevel;temperature;humidity
41515;BME280;27247;48.020;16.720;2023-05-02T00:03:31;99824.59;;;11.59;88.81
41515;BME280;27247;48.020;16.720;2023-05-02T00:07:41;99821.09;;;11.35;88.92
41515;BME280;27247;48.020;16.720;2023-05-02T00:11:52;99820.31;;;11.12;89.02
41515;BME280;27247;48.020;16.720;2023-05-02T00:16:02;99823.69;;;11.06;89.61
41515;BME280;27247;48.020;16.720;2023-05-02T00:20:13;99821.63;;;10.93;90.86
41515;BME280;27247;48.020;16.720;2023-05-02T00:24:23;99814.25;;;10.95;91.50
41515;BME280;27247;48.020;16.720;2023-05-02T00:28:33;99819.13;;;10.92;92.20
41515;BME280;27247;48.020;16.720;2023-05-02T00:32:44;99830.13;;;10.97;91.90
41515;BME280;27247;48.020;16.720;2023-05-02T00:36:54;99815.38;;;11.01;91.57
41515;BME280;27247;48.020;16.720;2023-05-02T00:41:04;99818.53;;;11.04;91.10
41515;BME280;27247;48.020;16.720;2023-05-02T00:45:15;99818.22;;;10.99;90.50
41515;BME280;27247;48.020;16.720;2023-05-02T00:49:25;99814.97;;;10.89;91.59
41515;BME280;27247;48.020;16.720;2023-05-02T00:53:36;99819.47;;;10.88;91.72
41515;BME280;27247;48.020;16.720;2023-05-02T00:57:46;99819.19;;;10.83;91.27
41515;BME280;27247;48.020;16.720;2023-05-02T01:07:45;99823.75;;;10.75;91.80
41515;BME280;27247;48.020;16.720;2023-05-02T01:12:04;99827.31;;;10.67;94.29
41515;BME280;27247;48.020;16.720;2023-05-02T01:16:17;99813.88;;;10.75;93.83
41515;BME280;27247;48.020;16.720;2023-05-02T01:20:29;99819.34;;;10.82;93.72
41515;BME280;27247;48.020;16.720;2023-05-02T01:29:06;99822.97;;;11.12;91.14
41515;BME280;27247;48.020;16.720;2023-05-02T01:33:17;99824.63;;;11.13;90.94
41515;BME280;27247;48.020;16.720;2023-05-02T01:37:29;99825.81;;;11.33;90.71
41515;BME280;27247;48.020;16.720;2023-05-02T01:41:40;99837.09;;;11.43;90.96
41515;BME280;27247;48.020;16.720;2023-05-02T01:45:53;99833.75;;;11.41;91.08
41515;BME280;27247;48.020;16.720;2023-05-02T01:50:06;99836.94;;;11.45;90.98
41515;BME280;27247;48.020;16.720;2023-05-02T01:54:20;99847.13;;;11.41;91.39
41515;BME280;27247;48.020;16.720;2023-05-02T01:58:33;99848.28;;;11.24;92.63
41515;BME280;27247;48.020;16.720;2023-05-02T02:02:46;99838.97;;;11.20;93.34
41515;BME280;27247;48.020;16.720;2023-05-02T02:07:02;99849.94;;;11.25;93.44
41515;BME280;27247;48.020;16.720;2023-05-02T02:11:17;99842.22;;;11.30;93.53
41515;BME280;27247;48.020;16.720;2023-05-02T02:15:33;99858.63;;;11.27;93.94
41515;BME280;27247;48.020;16.720;2023-05-02T02:19:45;99849.78;;;11.27;94.13
41515;BME280;27247;48.020;16.720;2023-05-02T02:23:56;99853.63;;;11.24;94.11
41515;BME280;27247;48.020;16.720;2023-05-02T02:28:10;99856.44;;;11.31;93.62
41515;BME280;27247;48.020;16.720;2023-05-02T02:32:21;99866.00;;;11.25;93.63
41515;BME280;27247;48.020;16.720;2023-05-02T02:36:42;99864.22;;;11.17;94.92
41515;BME280;27247;48.020;16.720;2023-05-02T02:40:58;99874.09;;;11.17;95.72
41515;BME280;27247;48.020;16.720;2023-05-02T02:45:33;99869.34;;;11.04;96.16
41515;BME280;27247;48.020;16.720;2023-05-02T02:49:50;99875.31;;;10.83;96.81
41515;BME280;27247;48.020;16.720;2023-05-02T02:54:13;99873.91;;;10.65;98.67
41515;BME280;27247;48.020;16.720;2023-05-02T02:58:38;99878.16;;;10.51;100.00
41515;BME280;27247;48.020;16.720;2023-05-02T03:02:52;99884.16;;;10.53;99.94
41515;BME280;27247;48.020;16.720;2023-05-02T03:07:03;99885.28;;;10.67;98.59
41515;BME280;27247;48.020;16.720;2023-05-02T03:11:14;99878.81;;;10.53;98.79
41515;BME280;27247;48.020;16.720;2023-05-02T03:20:03;99897.00;;;10.58;100.00
41515;BME280;27247;48.020;16.720;2023-05-02T03:24:14;99897.53;;;10.53;99.09
41515;BME280;27247;48.020;16.720;2023-05-02T03:28:24;99903.66;;;10.62;98.75
41515;BME280;27247;48.020;16.720;2023-05-02T03:32:35;99904.16;;;10.65;98.35
41515;BME280;27247;48.020;16.720;2023-05-02T03:36:45;99910.69;;;10.63;97.89
41515;BME280;27247;48.020;16.720;2023-05-02T03:40:56;99917.59;;;10.49;98.11
41515;BME280;27247;48.020;16.720;2023-05-02T03:45:07;99918.91;;;10.53;98.86
41515;BME280;27247;48.020;16.720;2023-05-02T03:49:18;99919.91;;;10.52;99.37
41515;BME280;27247;48.020;16.720;2023-05-02T03:53:29;99932.88;;;10.63;98.76
41515;BME280;27247;48.020;16.720;2023-05-02T03:57:40;99931.56;;;10.59;98.94
41515;BME280;27247;48.020;16.720;2023-05-02T04:01:51;99942.06;;;10.69;99.11
41515;BME280;27247;48.020;16.720;2023-05-02T04:06:01;99935.88;;;10.68;99.71
41515;BME280;27247;48.020;16.720;2023-05-02T04:10:12;99943.88;;;10.68;100.00
41515;BME280;27247;48.020;16.720;2023-05-02T04:14:26;99952.22;;;10.73;100.00
41515;BME280;27247;48.020;16.720;2023-05-02T04:18:36;99955.00;;;10.88;100.00
41515;BME280;27247;48.020;16.720;2023-05-02T04:22:46;99951.91;;;10.99;100.00
41515;BME280;27247;48.020;16.720;2023-05-02T04:26:59;99954.69;;;11.14;100.00
41515;BME280;27247;48.020;16.720;2023-05-02T04:31:09;99961.47;;;11.25;100.00
41515;BME280;27247;48.020;16.720;2023-05-02T04:35:20;99962.38;;;11.40;100.00
41515;BME280;27247;48.020;16.720;2023-05-02T04:39:30;99967.47;;;11.58;100.00
41515;BME280;27247;48.020;16.720;2023-05-02T04:43:40;99963.47;;;11.76;100.00
41515;BME280;27247;48.020;16.720;2023-05-02T04:47:51;99968.06;;;11.91;100.00
41515;BME280;27247;48.020;16.720;2023-05-02T04:52:01;99963.19;;;12.09;100.00
41515;BME280;27247;48.020;16.720;2023-05-02T04:56:12;99964.78;;;12.33;100.00
41515;BME280;27247;48.020;16.720;2023-05-02T05:00:22;99975.88;;;12.44;100.00
41515;BME280;27247;48.020;16.720;2023-05-02T05:04:32;99975.19;;;12.65;100.00
41515;BME280;27247;48.020;16.720;2023-05-02T05:08:43;99977.41;;;12.76;100.00
41515;BME280;27247;48.020;16.720;2023-05-02T05:12:54;99976.47;;;12.84;100.00
41515;BME280;27247;48.020;16.720;2023-05-02T05:17:05;99973.56;;;13.00;100.00
41515;BME280;27247;48.020;16.720;2023-05-02T05:21:15;99978.81;;;13.08;99.89
41515;BME280;27247;48.020;16.720;2023-05-02T05:25:26;99983.72;;;13.20;97.64
41515;BME280;27247;48.020;16.720;2023-05-02T05:29:36;99989.19;;;13.26;94.92
41515;BME280;27247;48.020;16.720;2023-05-02T05:33:47;99983.06;;;13.32;93.17
41515;BME280;27247;48.020;16.720;2023-05-02T05:37:57;99989.06;;;13.34;92.47
41515;BME280;27247;48.020;16.720;2023-05-02T05:42:07;99988.56;;;13.46;91.35
41515;BME280;27247;48.020;16.720;2023-05-02T05:46:18;99997.34;;;13.54;91.22
41515;BME280;27247;48.020;16.720;2023-05-02T05:50:29;100002.78;;;13.61;91.08
41515;BME280;27247;48.020;16.720;2023-05-02T05:54:39;99993.00;;;13.74;91.06
41515;BME280;27247;48.020;16.720;2023-05-02T05:58:49;99993.72;;;13.83;89.67
41515;BME280;27247;48.020;16.720;2023-05-02T06:03:00;100007.06;;;13.98;88.59
41515;BME280;27247;48.020;16.720;2023-05-02T06:07:10;100009.09;;;14.17;88.11
41515;BME280;27247;48.020;16.720;2023-05-02T06:11:21;100018.34;;;14.36;86.38
41515;BME280;27247;48.020;16.720;2023-05-02T06:15:34;100020.19;;;14.57;87.01
41515;BME280;27247;48.020;16.720;2023-05-02T06:19:45;100027.34;;;14.78;85.79
41515;BME280;27247;48.020;16.720;2023-05-02T06:23:55;100027.06;;;15.00;84.89
41515;BME280;27247;48.020;16.720;2023-05-02T06:28:05;100024.91;;;15.30;83.42
41515;BME280;27247;48.020;16.720;2023-05-02T06:32:16;100028.94;;;15.54;80.99
41515;BME280;27247;48.020;16.720;2023-05-02T06:36:26;100023.66;;;15.74;80.49
41515;BME280;27247;48.020;16.720;2023-05-02T06:40:37;100025.13;;;15.96;79.66
41515;BME280;27247;48.020;16.720;2023-05-02T06:44:54;100033.84;;;16.05;77.80
41515;BME280;27247;48.020;16.720;2023-05-02T06:49:05;100041.53;;;16.21;78.24
41515;BME280;27247;48.020;16.720;2023-05-02T06:53:15;100043.59;;;16.13;77.56
41515;BME280;27247;48.020;16.720;2023-05-02T06:57:25;100049.19;;;16.05;78.03
41515;BME280;27247;48.020;16.720;2023-05-02T07:01:36;100057.06;;;16.00;78.66
41515;BME280;27247;48.020;16.720;2023-05-02T07:05:46;100064.31;;;15.92;78.58
41515;BME280;27247;48.020;16.720;2023-05-02T07:09:56;100069.47;;;15.81;78.58
41515;BME280;27247;48.020;16.720;2023-05-02T07:14:07;100075.66;;;15.68;78.79
41515;BME280;27247;48.020;16.720;2023-05-02T07:18:17;100078.50;;;15.60;78.29
41515;BME280;27247;48.020;16.720;2023-05-02T07:22:28;100074.50;;;15.49;77.80
41515;BME280;27247;48.020;16.720;2023-05-02T07:26:38;100082.56;;;15.43;78.63
41515;BME280;27247;48.020;16.720;2023-05-02T07:30:48;100079.59;;;15.31;79.67
41515;BME280;27247;48.020;16.720;2023-05-02T07:34:59;100084.75;;;15.26;78.74
41515;BME280;27247;48.020;16.720;2023-05-02T07:39:09;100084.91;;;15.18;79.55
41515;BME280;27247;48.020;16.720;2023-05-02T07:43:19;100090.50;;;15.16;79.82
41515;BME280;27247;48.020;16.720;2023-05-02T07:47:30;100087.38;;;15.13;81.76
41515;BME280;27247;48.020;16.720;2023-05-02T07:51:40;100096.06;;;15.08;82.96
41515;BME280;27247;48.020;16.720;2023-05-02T07:55:50;100083.00;;;15.05;83.10
41515;BME280;27247;48.020;16.720;2023-05-02T08:00:00;100080.69;;;15.02;84.22
41515;BME280;27247;48.020;16.720;2023-05-02T08:04:11;100088.38;;;15.05;84.81
41515;BME280;27247;48.020;16.720;2023-05-02T08:08:22;100084.03;;;15.04;84.35
41515;BME280;27247;48.020;16.720;2023-05-02T08:12:40;100080.50;;;15.04;84.11
41515;BME280;27247;48.020;16.720;2023-05-02T08:16:50;100084.66;;;15.06;82.63
41515;BME280;27247;48.020;16.720;2023-05-02T08:21:00;100088.84;;;15.15;83.00
41515;BME280;27247;48.020;16.720;2023-05-02T08:25:11;100083.88;;;15.19;82.15
41515;BME280;27247;48.020;16.720;2023-05-02T08:29:22;100096.56;;;15.25;81.30
41515;BME280;27247;48.020;16.720;2023-05-02T08:33:33;100092.22;;;15.30;81.28
41515;BME280;27247;48.020;16.720;2023-05-02T08:37:43;100086.69;;;15.39;80.99
41515;BME280;27247;48.020;16.720;2023-05-02T08:41:53;100091.09;;;15.53;81.21
41515;BME280;27247;48.020;16.720;2023-05-02T08:46:05;100085.38;;;15.62;80.76
41515;BME280;27247;48.020;16.720;2023-05-02T08:50:20;100086.66;;;15.73;79.79
41515;BME280;27247;48.020;16.720;2023-05-02T08:54:30;100092.44;;;15.70;78.86
41515;BME280;27247;48.020;16.720;2023-05-02T08:58:41;100100.53;;;15.70;78.77
41515;BME280;27247;48.020;16.720;2023-05-02T09:03:05;100112.34;;;15.69;78.61
41515;BME280;27247;48.020;16.720;2023-05-02T09:07:16;100115.00;;;15.62;79.78
41515;BME280;27247;48.020;16.720;2023-05-02T09:11:27;100112.75;;;15.66;79.88
41515;BME280;27247;48.020;16.720;2023-05-02T09:15:38;100114.63;;;15.72;79.97
41515;BME280;27247;48.020;16.720;2023-05-02T09:19:59;100116.69;;;15.63;79.64
41515;BME280;27247;48.020;16.720;2023-05-02T09:24:17;100129.06;;;15.58;79.62
41515;BME280;27247;48.020;16.720;2023-05-02T09:28:43;100123.94;;;15.63;80.52
41515;BME280;27247;48.020;16.720;2023-05-02T09:32:53;100129.75;;;15.73;80.54
41515;BME280;27247;48.020;16.720;2023-05-02T09:37:06;100122.53;;;15.80;79.60
41515;BME280;27247;48.020;16.720;2023-05-02T09:41:17;100128.38;;;15.90;79.04
41515;BME280;27247;48.020;16.720;2023-05-02T09:45:29;100134.00;;;16.02;78.22
41515;BME280;27247;48.020;16.720;2023-05-02T09:49:44;100135.88;;;16.02;76.71
41515;BME280;27247;48.020;16.720;2023-05-02T09:53:54;100136.28;;;16.05;77.19
41515;BME280;27247;48.020;16.720;2023-05-02T09:58:05;100142.31;;;16.14;77.42
41515;BME280;27247;48.020;16.720;2023-05-02T10:02:15;100138.41;;;16.23;78.09
41515;BME280;27247;48.020;16.720;2023-05-02T10:06:26;100136.34;;;16.51;78.66
41515;BME280;27247;48.020;16.720;2023-05-02T10:10:45;100126.03;;;16.68;76.89
41515;BME280;27247;48.020;16.720;2023-05-02T10:14:59;100122.91;;;16.65;76.79
41515;BME280;27247;48.020;16.720;2023-05-02T10:19:19;100133.88;;;16.56;76.84
41515;BME280;27247;48.020;16.720;2023-05-02T10:23:33;100130.34;;;16.56;75.72
41515;BME280;27247;48.020;16.720;2023-05-02T10:27:44;100123.69;;;16.58;75.65
41515;BME280;27247;48.020;16.720;2023-05-02T10:31:56;100136.16;;;16.53;76.85
41515;BME280;27247;48.020;16.720;2023-05-02T10:36:09;100136.97;;;16.53;76.49
41515;BME280;27247;48.020;16.720;2023-05-02T10:40:23;100141.75;;;16.38;75.35
41515;BME280;27247;48.020;16.720;2023-05-02T10:44:35;100136.97;;;16.47;76.47
41515;BME280;27247;48.020;16.720;2023-05-02T10:49:03;100131.16;;;16.56;75.71
41515;BME280;27247;48.020;16.720;2023-05-02T10:53:24;100134.34;;;16.67;75.84
41515;BME280;27247;48.020;16.720;2023-05-02T11:11:37;100130.03;;;17.50;76.01
41515;BME280;27247;48.020;16.720;2023-05-02T11:24:40;100131.34;;;18.30;73.59
41515;BME280;27247;48.020;16.720;2023-05-02T11:28:51;100128.53;;;18.43;71.84
41515;BME280;27247;48.020;16.720;2023-05-02T11:37:15;100135.09;;;18.54;72.12
41515;BME280;27247;48.020;16.720;2023-05-02T11:41:38;100129.63;;;18.67;70.50
41515;BME280;27247;48.020;16.720;2023-05-02T11:45:49;100133.06;;;18.81;71.55
41515;BME280;27247;48.020;16.720;2023-05-02T11:50:03;100132.50;;;18.72;69.22
41515;BME280;27247;48.020;16.720;2023-05-02T11:54:20;100136.22;;;18.78;70.75
41515;BME280;27247;48.020;16.720;2023-05-02T11:58:31;100133.28;;;18.79;68.28
41515;BME280;27247;48.020;16.720;2023-05-02T12:02:44;100135.00;;;18.99;68.86
41515;BME280;27247;48.020;16.720;2023-05-02T12:06:58;100137.34;;;19.13;67.86
41515;BME280;27247;48.020;16.720;2023-05-02T12:11:08;100136.22;;;19.39;67.08
41515;BME280;27247;48.020;16.720;2023-05-02T12:15:19;100132.06;;;19.00;65.58
41515;BME280;27247;48.020;16.720;2023-05-02T12:19:29;100142.44;;;18.47;68.96
41515;BME280;27247;48.020;16.720;2023-05-02T12:23:40;100134.81;;;18.37;70.51
41515;BME280;27247;48.020;16.720;2023-05-02T12:27:58;100133.69;;;18.20;70.43
41515;BME280;27247;48.020;16.720;2023-05-02T12:32:13;100134.72;;;18.19;71.89
41515;BME280;27247;48.020;16.720;2023-05-02T12:36:24;100133.25;;;18.23;71.41
41515;BME280;27247;48.020;16.720;2023-05-02T12:40:35;100140.09;;;18.26;70.67
41515;BME280;27247;48.020;16.720;2023-05-02T12:44:47;100138.13;;;18.08;71.61
41515;BME280;27247;48.020;16.720;2023-05-02T12:49:02;100149.16;;;18.06;72.82
41515;BME280;27247;48.020;16.720;2023-05-02T12:53:14;100147.31;;;18.38;72.55
41515;BME280;27247;48.020;16.720;2023-05-02T12:57:25;100150.97;;;18.50;72.09
41515;BME280;27247;48.020;16.720;2023-05-02T13:01:35;100158.28;;;18.43;70.79
41515;BME280;27247;48.020;16.720;2023-05-02T13:05:45;100148.63;;;18.29;71.59
41515;BME280;27247;48.020;16.720;2023-05-02T13:09:56;100153.63;;;18.26;71.40
41515;BME280;27247;48.020;16.720;2023-05-02T13:14:06;100157.13;;;18.33;70.96
41515;BME280;27247;48.020;16.720;2023-05-02T13:18:16;100155.59;;;18.12;71.69
41515;BME280;27247;48.020;16.720;2023-05-02T13:22:27;100156.44;;;18.06;72.85
41515;BME280;27247;48.020;16.720;2023-05-02T13:26:37;100148.69;;;18.16;72.61
41515;BME280;27247;48.020;16.720;2023-05-02T13:30:47;100148.25;;;18.19;72.63
41515;BME280;27247;48.020;16.720;2023-05-02T13:34:58;100153.34;;;18.02;71.92
41515;BME280;27247;48.020;16.720;2023-05-02T13:39:08;100150.44;;;18.04;72.64
41515;BME280;27247;48.020;16.720;2023-05-02T13:43:18;100145.16;;;18.15;72.71
41515;BME280;27247;48.020;16.720;2023-05-02T13:47:29;100148.81;;;17.96;71.21
41515;BME280;27247;48.020;16.720;2023-05-02T13:51:40;100156.56;;;17.86;71.11
41515;BME280;27247;48.020;16.720;2023-05-02T13:55:50;100149.13;;;17.75;71.54
41515;BME280;27247;48.020;16.720;2023-05-02T14:00:00;100152.19;;;17.85;70.98
41515;BME280;27247;48.020;16.720;2023-05-02T14:04:11;100144.13;;;17.78;70.83
41515;BME280;27247;48.020;16.720;2023-05-02T14:08:21;100144.69;;;17.87;70.97
41515;BME280;27247;48.020;16.720;2023-05-02T14:12:32;100143.66;;;17.88;70.72
41515;BME280;27247;48.020;16.720;2023-05-02T14:16:42;100128.25;;;17.89;71.27
41515;BME280;27247;48.020;16.720;2023-05-02T14:20:52;100138.03;;;17.90;70.54
41515;BME280;27247;48.020;16.720;2023-05-02T14:25:03;100132.72;;;18.08;72.43
41515;BME280;27247;48.020;16.720;2023-05-02T14:29:14;100124.25;;;17.98;72.44
41515;BME280;27247;48.020;16.720;2023-05-02T14:33:25;100139.06;;;17.89;72.09
41515;BME280;27247;48.020;16.720;2023-05-02T14:37:36;100129.75;;;17.78;72.85
41515;BME280;27247;48.020;16.720;2023-05-02T14:41:46;100131.44;;;17.79;73.38
41515;BME280;27247;48.020;16.720;2023-05-02T14:45:57;100130.63;;;17.59;74.25
41515;BME280;27247;48.020;16.720;2023-05-02T14:50:08;100142.13;;;17.41;74.07
41515;BME280;27247;48.020;16.720;2023-05-02T14:54:18;100147.13;;;17.31;75.23
41515;BME280;27247;48.020;16.720;2023-05-02T14:58:29;100147.78;;;17.19;75.94
41515;BME280;27247;48.020;16.720;2023-05-02T15:02:39;100142.19;;;17.08;75.45
41515;BME280;27247;48.020;16.720;2023-05-02T15:06:50;100146.56;;;17.02;75.99
41515;BME280;27247;48.020;16.720;2023-05-02T15:11:04;100146.38;;;16.97;76.29
41515;BME280;27247;48.020;16.720;2023-05-02T15:15:16;100141.81;;;16.78;77.40
41515;BME280;27247;48.020;16.720;2023-05-02T15:19:27;100146.38;;;16.71;77.80
41515;BME280;27247;48.020;16.720;2023-05-02T15:23:37;100150.53;;;16.67;78.51
41515;BME280;27247;48.020;16.720;2023-05-02T15:27:47;100159.38;;;16.54;78.90
41515;BME280;27247;48.020;16.720;2023-05-02T15:31:58;100165.00;;;16.46;79.32
41515;BME280;27247;48.020;16.720;2023-05-02T15:36:08;100155.63;;;16.35;79.35
41515;BME280;27247;48.020;16.720;2023-05-02T15:40:19;100152.09;;;16.21;80.55
41515;BME280;27247;48.020;16.720;2023-05-02T15:44:29;100158.31;;;16.28;80.91
41515;BME280;27247;48.020;16.720;2023-05-02T15:48:39;100155.84;;;16.27;81.00
41515;BME280;27247;48.020;16.720;2023-05-02T15:52:50;100164.13;;;16.19;80.86
41515;BME280;27247;48.020;16.720;2023-05-02T15:57:00;100179.66;;;16.17;81.62
41515;BME280;27247;48.020;16.720;2023-05-02T16:01:11;100184.44;;;16.15;82.10
41515;BME280;27247;48.020;16.720;2023-05-02T16:05:21;100181.06;;;16.00;81.99
41515;BME280;27247;48.020;16.720;2023-05-02T16:09:32;100186.63;;;15.91;82.04
41515;BME280;27247;48.020;16.720;2023-05-02T16:13:42;100189.56;;;15.96;83.38
41515;BME280;27247;48.020;16.720;2023-05-02T16:17:53;100191.19;;;15.91;84.20
41515;BME280;27247;48.020;16.720;2023-05-02T16:22:03;100194.28;;;15.88;84.83
41515;BME280;27247;48.020;16.720;2023-05-02T16:26:13;100192.78;;;15.72;84.34
41515;BME280;27247;48.020;16.720;2023-05-02T16:30:24;100196.91;;;15.68;84.78
41515;BME280;27247;48.020;16.720;2023-05-02T16:34:34;100200.63;;;15.67;85.18
41515;BME280;27247;48.020;16.720;2023-05-02T16:38:44;100195.56;;;15.57;86.26
41515;BME280;27247;48.020;16.720;2023-05-02T16:42:55;100213.72;;;15.49;87.16
41515;BME280;27247;48.020;16.720;2023-05-02T16:47:08;100212.78;;;15.28;88.34
41515;BME280;27247;48.020;16.720;2023-05-02T16:51:19;100211.78;;;15.36;89.56
41515;BME280;27247;48.020;16.720;2023-05-02T16:55:29;100214.00;;;15.26;90.24
41515;BME280;27247;48.020;16.720;2023-05-02T16:59:40;100206.91;;;15.18;91.23
41515;BME280;27247;48.020;16.720;2023-05-02T17:03:50;100219.91;;;15.15;92.36
41515;BME280;27247;48.020;16.720;2023-05-02T17:08:01;100216.09;;;15.02;94.37
41515;BME280;27247;48.020;16.720;2023-05-02T17:12:11;100224.91;;;14.90;95.52
41515;BME280;27247;48.020;16.720;2023-05-02T17:16:22;100226.06;;;14.81;96.26
41515;BME280;27247;48.020;16.720;2023-05-02T17:20:32;100230.44;;;14.60;97.33
41515;BME280;27247;48.020;16.720;2023-05-02T17:24:43;100245.56;;;14.47;98.42
41515;BME280;27247;48.020;16.720;2023-05-02T17:28:57;100243.97;;;14.37;99.36
41515;BME280;27247;48.020;16.720;2023-05-02T17:33:07;100242.63;;;14.27;100.00
41515;BME280;27247;48.020;16.720;2023-05-02T17:37:18;100252.28;;;14.21;100.00
41515;BME280;27247;48.020;16.720;2023-05-02T17:41:29;100251.09;;;14.09;100.00
41515;BME280;27247;48.020;16.720;2023-05-02T17:45:39;100251.28;;;14.07;100.00
41515;BME280;27247;48.020;16.720;2023-05-02T17:49:50;100262.34;;;13.98;100.00
41515;BME280;27247;48.020;16.720;2023-05-02T17:54:02;100263.00;;;13.85;100.00
41515;BME280;27247;48.020;16.720;2023-05-02T17:58:13;100276.88;;;13.74;100.00
41515;BME280;27247;48.020;16.720;2023-05-02T18:02:25;100283.94;;;13.75;100.00
41515;BME280;27247;48.020;16.720;2023-05-02T18:06:36;100282.81;;;13.69;100.00
41515;BME280;27247;48.020;16.720;2023-05-02T18:10:46;100278.19;;;13.63;100.00
41515;BME280;27247;48.020;16.720;2023-05-02T18:14:57;100279.56;;;13.59;100.00
41515;BME280;27247;48.020;16.720;2023-05-02T18:19:07;100282.44;;;13.58;100.00
41515;BME280;27247;48.020;16.720;2023-05-02T18:23:18;100297.53;;;13.59;100.00
41515;BME280;27247;48.020;16.720;2023-05-02T18:27:28;100301.78;;;13.53;100.00
41515;BME280;27247;48.020;16.720;2023-05-02T18:31:41;100310.00;;;13.52;100.00
41515;BME280;27247;48.020;16.720;2023-05-02T18:35:52;100308.16;;;13.52;100.00
41515;BME280;27247;48.020;16.720;2023-05-02T18:40:03;100318.41;;;13.49;100.00
41515;BME280;27247;48.020;16.720;2023-05-02T18:44:13;100324.97;;;13.46;100.00
41515;BME280;27247;48.020;16.720;2023-05-02T18:48:24;100330.91;;;13.41;100.00
41515;BME280;27247;48.020;16.720;2023-05-02T18:52:35;100331.44;;;13.37;100.00
41515;BME280;27247;48.020;16.720;2023-05-02T18:56:45;100338.09;;;13.26;100.00
41515;BME280;27247;48.020;16.720;2023-05-02T19:00:56;100336.78;;;13.22;100.00
41515;BME280;27247;48.020;16.720;2023-05-02T19:05:07;100344.75;;;13.30;100.00
41515;BME280;27247;48.020;16.720;2023-05-02T19:09:18;100344.66;;;13.24;100.00
41515;BME280;27247;48.020;16.720;2023-05-02T19:13:29;100348.19;;;13.16;100.00
41515;BME280;27247;48.020;16.720;2023-05-02T19:17:40;100353.28;;;13.11;100.00
41515;BME280;27247;48.020;16.720;2023-05-02T19:21:52;100362.59;;;13.23;100.00
41515;BME280;27247;48.020;16.720;2023-05-02T19:26:02;100367.03;;;13.08;100.00
41515;BME280;27247;48.020;16.720;2023-05-02T19:30:13;100369.78;;;13.00;100.00
41515;BME280;27247;48.020;16.720;2023-05-02T19:34:24;100375.44;;;13.05;100.00
41515;BME280;27247;48.020;16.720;2023-05-02T19:38:35;100371.56;;;13.07;100.00
41515;BME280;27247;48.020;16.720;2023-05-02T19:42:45;100384.63;;;13.10;100.00
41515;BME280;27247;48.020;16.720;2023-05-02T19:46:56;100382.38;;;12.99;100.00
41515;BME280;27247;48.020;16.720;2023-05-02T19:51:06;100385.88;;;13.00;100.00
41515;BME280;27247;48.020;16.720;2023-05-02T19:55:17;100388.63;;;12.92;100.00
41515;BME280;27247;48.020;16.720;2023-05-02T19:59:29;100393.72;;;12.78;100.00
41515;BME280;27247;48.020;16.720;2023-05-02T20:03:39;100390.81;;;12.88;100.00
41515;BME280;27247;48.020;16.720;2023-05-02T20:07:50;100396.22;;;12.80;100.00
41515;BME280;27247;48.020;16.720;2023-05-02T20:12:00;100398.81;;;12.65;100.00
41515;BME280;27247;48.020;16.720;2023-05-02T20:16:12;100408.31;;;12.76;100.00
41515;BME280;27247;48.020;16.720;2023-05-02T20:20:23;100403.78;;;12.76;100.00
41515;BME280;27247;48.020;16.720;2023-05-02T20:24:34;100406.69;;;12.67;100.00
41515;BME280;27247;48.020;16.720;2023-05-02T20:28:44;100405.88;;;12.58;100.00
41515;BME280;27247;48.020;16.720;2023-05-02T20:32:54;100404.50;;;12.70;100.00
41515;BME280;27247;48.020;16.720;2023-05-02T20:37:05;100397.28;;;12.71;100.00
41515;BME280;27247;48.020;16.720;2023-05-02T20:41:15;100403.19;;;12.66;100.00
41515;BME280;27247;48.020;16.720;2023-05-02T20:45:26;100415.25;;;12.62;100.00
41515;BME280;27247;48.020;16.720;2023-05-02T20:49:37;100426.81;;;12.63;100.00
41515;BME280;27247;48.020;16.720;2023-05-02T20:53:47;100413.59;;;12.61;100.00
41515;BME280;27247;48.020;16.720;2023-05-02T20:57:58;100408.28;;;12.37;100.00
41515;BME280;27247;48.020;16.720;2023-05-02T21:02:09;100415.47;;;12.44;100.00
41515;BME280;27247;48.020;16.720;2023-05-02T21:06:19;100414.97;;;12.49;100.00
41515;BME280;27247;48.020;16.720;2023-05-02T21:10:30;100416.97;;;12.47;100.00
41515;BME280;27247;48.020;16.720;2023-05-02T21:14:40;100409.28;;;12.52;100.00
41515;BME280;27247;48.020;16.720;2023-05-02T21:18:51;100412.44;;;12.56;100.00
41515;BME280;27247;48.020;16.720;2023-05-02T21:23:01;100421.19;;;12.50;100.00
41515;BME280;27247;48.020;16.720;2023-05-02T21:27:11;100416.66;;;12.50;100.00
41515;BME280;27247;48.020;16.720;2023-05-02T21:31:22;100421.66;;;12.53;100.00
41515;BME280;27247;48.020;16.720;2023-05-02T21:35:32;100420.34;;;12.49;100.00
41515;BME280;27247;48.020;16.720;2023-05-02T21:39:43;100423.84;;;12.50;100.00
41515;BME280;27247;48.020;16.720;2023-05-02T21:43:53;100417.84;;;12.39;100.00
41515;BME280;27247;48.020;16.720;2023-05-02T21:48:04;100434.41;;;12.51;100.00
41515;BME280;27247;48.020;16.720;2023-05-02T21:52:14;100430.53;;;12.54;100.00
41515;BME280;27247;48.020;16.720;2023-05-02T21:56:24;100429.88;;;12.52;100.00
41515;BME280;27247;48.020;16.720;2023-05-02T22:00:39;100428.19;;;12.59;100.00
41515;BME280;27247;48.020;16.720;2023-05-02T22:04:50;100436.75;;;12.54;100.00
41515;BME280;27247;48.020;16.720;2023-05-02T22:09:00;100432.25;;;12.38;100.00
41515;BME280;27247;48.020;16.720;2023-05-02T22:13:12;100433.41;;;12.52;100.00
41515;BME280;27247;48.020;16.720;2023-05-02T22:17:23;100433.41;;;12.52;100.00
41515;BME280;27247;48.020;16.720;2023-05-02T22:21:33;100435.91;;;12.45;100.00